Time;durP1;ratioP1;P1;durP2;ratioP2;P2;SDS_P1;SDS_P2;PMS_P1;PMS_P2;Temp;Humidity;BMP_temperature;BMP_pressure;BME280_temperature;BME280_humidity;BME280_pressure;Samples;Min_cycle;Max_cycle;Signal;HPM_P1;HPM_P2
2021/09/01 00:02:03;;;;;;;7.13;5.13;;;;;;;13.09;84.72;98458.38;5031695;28;20021;-73
2021/09/01 00:04:28;;;;;;;8.35;5.43;;;;;;;13.07;84.68;98455.94;5031806;28;20075;-73
2021/09/01 00:06:54;;;;;;;5.85;4.05;;;;;;;13.05;84.70;98473.88;5031367;28;20037;-75
2021/09/01 00:09:19;;;;;;;8.35;4.68;;;;;;;13.00;85.34;98474.84;5031446;28;20697;-73
2021/09/01 00:11:45;;;;;;;6.07;4.07;;;;;;;12.97;84.98;98477.41;5031821;28;20489;-74
2021/09/01 00:14:11;;;;;;;6.15;4.50;;;;;;;12.97;85.12;98475.47;5032035;28;20038;-74
2021/09/01 00:16:36;;;;;;;6.72;4.22;;;;;;;12.93;84.97;98483.53;5029777;28;20052;-74
2021/09/01 00:19:07;;;;;;;7.25;4.63;;;;;;;12.91;85.14;98484.97;5031096;28;20421;-75
2021/09/01 00:21:33;;;;;;;8.82;4.85;;;;;;;12.87;85.28;98481.19;5030931;28;20025;-74
2021/09/01 00:23:59;;;;;;;7.53;4.20;;;;;;;12.84;85.10;98476.34;5031191;28;20033;-74
2021/09/01 00:26:26;;;;;;;6.85;4.28;;;;;;;12.78;85.13;98481.13;5031219;28;20030;-74
2021/09/01 00:28:51;;;;;;;6.38;3.90;;;;;;;12.76;84.93;98481.44;5030459;28;20025;-74
2021/09/01 00:31:18;;;;;;;8.05;4.55;;;;;;;12.72;84.85;98480.44;5030929;28;20079;-73
2021/09/01 00:33:43;;;;;;;6.85;4.40;;;;;;;12.68;85.04;98482.19;5030773;28;20025;-75
2021/09/01 00:36:09;;;;;;;7.15;4.28;;;;;;;12.63;85.00;98477.59;5031066;28;20150;-74
2021/09/01 00:38:34;;;;;;;6.40;4.40;;;;;;;12.61;85.10;98485.38;5031260;28;20466;-74
2021/09/01 00:40:59;;;;;;;7.63;4.30;;;;;;;12.59;85.36;98490.38;5030921;28;20047;-73
2021/09/01 00:43:25;;;;;;;6.50;4.00;;;;;;;12.54;85.49;98495.97;5031030;28;20049;-74
2021/09/01 00:45:51;;;;;;;6.63;4.13;;;;;;;12.48;85.22;98494.44;5030924;28;20037;-74
2021/09/01 00:48:21;;;;;;;7.15;4.50;;;;;;;12.44;85.33;98501.69;5030319;28;20033;-74
2021/09/01 00:50:48;;;;;;;6.03;3.47;;;;;;;12.40;85.01;98495.16;5030770;28;20036;-74
2021/09/01 00:53:14;;;;;;;7.85;4.18;;;;;;;12.38;85.53;98490.00;5012746;28;20461;-74
2021/09/01 00:55:46;;;;;;;5.82;3.85;;;;;;;12.36;84.94;98495.78;5030644;28;20075;-74
2021/09/01 00:58:14;;;;;;;8.90;4.38;;;;;;;12.35;85.44;98496.09;5030305;28;20033;-73
2021/09/01 01:01:14;;;;;;;7.90;4.40;;;;;;;12.34;85.15;98508.22;5030143;28;20592;-73
2021/09/01 01:03:25;;;;;;;8.02;4.00;;;;;;;12.34;85.36;98510.97;5029491;28;20374;-74
2021/09/01 01:05:50;;;;;;;8.48;4.30;;;;;;;12.33;85.57;98512.09;5030335;28;20037;-73
2021/09/01 01:08:16;;;;;;;5.90;4.03;;;;;;;12.31;85.75;98506.88;5028360;28;20029;-73
2021/09/01 01:10:42;;;;;;;6.18;4.18;;;;;;;12.32;85.07;98504.97;5029989;28;20024;-74
2021/09/01 01:13:08;;;;;;;6.63;3.95;;;;;;;12.32;85.04;98505.75;5030268;28;20068;-73
2021/09/01 01:15:37;;;;;;;5.50;3.55;;;;;;;12.30;85.31;98510.75;5012144;28;20065;-74
2021/09/01 01:18:03;;;;;;;5.57;3.60;;;;;;;12.29;85.31;98516.56;5029728;28;20041;-74
2021/09/01 01:20:28;;;;;;;6.97;3.30;;;;;;;12.25;85.52;98508.09;5029959;28;20111;-75
2021/09/01 01:22:54;;;;;;;6.10;3.13;;;;;;;12.24;85.55;98513.94;5030071;28;20025;-73
2021/09/01 01:25:38;;;;;;;5.65;3.63;;;;;;;12.23;85.41;98515.03;5030107;28;20420;-74
2021/09/01 01:28:05;;;;;;;5.18;3.65;;;;;;;12.22;85.45;98514.25;5029860;28;20025;-75
2021/09/01 01:30:31;;;;;;;6.45;3.88;;;;;;;12.23;85.25;98509.53;5029608;28;20029;-74
2021/09/01 01:32:57;;;;;;;6.45;4.43;;;;;;;12.19;85.60;98507.41;5029813;28;20478;-75
2021/09/01 01:35:43;;;;;;;5.25;3.40;;;;;;;12.16;85.40;98516.25;5029787;28;20029;-75
2021/09/01 01:38:16;;;;;;;10.35;5.72;;;;;;;12.16;85.66;98520.97;5027285;28;20079;-74
2021/09/01 01:40:42;;;;;;;7.57;4.35;;;;;;;12.14;85.60;98520.44;5027550;28;20140;-75
2021/09/01 01:43:09;;;;;;;9.80;5.00;;;;;;;12.12;85.82;98515.25;5029389;28;20052;-73
2021/09/01 01:45:37;;;;;;;6.60;4.15;;;;;;;12.14;85.74;98518.50;5011746;28;20167;-74
2021/09/01 01:48:04;;;;;;;6.22;3.90;;;;;;;12.13;85.65;98516.06;5029443;28;20513;-75
2021/09/01 01:50:30;;;;;;;6.90;4.03;;;;;;;12.12;85.48;98517.19;5029220;28;20025;-74
2021/09/01 01:52:56;;;;;;;4.70;3.30;;;;;;;12.10;85.24;98514.72;5024048;28;20021;-74
2021/09/01 01:55:21;;;;;;;4.90;2.95;;;;;;;12.09;85.89;98510.34;5027953;28;20033;-74
2021/09/01 01:57:47;;;;;;;5.20;3.33;;;;;;;12.09;85.83;98515.03;5028110;28;20028;-75
2021/09/01 02:00:13;;;;;;;5.03;3.35;;;;;;;12.10;86.09;98517.47;5028638;28;20493;-74
2021/09/01 02:02:39;;;;;;;3.75;2.90;;;;;;;12.11;85.72;98521.06;5028249;28;20026;-73
2021/09/01 02:05:05;;;;;;;4.63;3.42;;;;;;;12.12;86.17;98520.75;5028786;28;20044;-73
2021/09/01 02:07:32;;;;;;;5.63;3.33;;;;;;;12.12;85.91;98517.19;5029388;28;20022;-73
2021/09/01 02:09:58;;;;;;;5.55;3.65;;;;;;;12.14;85.89;98517.69;5011750;28;20033;-73
2021/09/01 02:12:28;;;;;;;4.95;3.78;;;;;;;12.13;86.15;98522.38;5029433;28;20029;-74
2021/09/01 02:14:54;;;;;;;5.63;4.05;;;;;;;12.13;86.29;98516.88;5027655;28;20587;-73
2021/09/01 02:17:19;;;;;;;6.82;4.38;;;;;;;12.17;86.03;98519.84;5030267;28;20026;-73
2021/09/01 02:19:45;;;;;;;4.95;3.67;;;;;;;12.16;85.59;98518.22;5030412;28;20453;-72
2021/09/01 02:22:10;;;;;;;6.25;4.20;;;;;;;12.18;85.97;98536.03;5029615;28;20029;-72
2021/09/01 02:24:35;;;;;;;6.82;4.28;;;;;;;12.16;85.97;98530.00;5010717;28;20033;-72
2021/09/01 02:27:01;;;;;;;7.45;4.65;;;;;;;12.16;86.14;98523.72;5011694;28;20481;-73
2021/09/01 02:29:26;;;;;;;8.60;4.63;;;;;;;12.12;85.79;98536.44;5029353;28;20410;-73
2021/09/01 02:31:52;;;;;;;6.68;4.70;;;;;;;12.13;85.97;98536.13;5011857;28;20025;-73
2021/09/01 02:34:17;;;;;;;9.27;5.32;;;;;;;12.13;85.76;98540.81;5030067;28;20017;-73
2021/09/01 02:36:42;;;;;;;11.20;5.13;;;;;;;12.13;86.04;98538.88;5028615;28;20029;-72
2021/09/01 02:39:08;;;;;;;8.25;5.72;;;;;;;12.13;85.68;98533.38;5029578;28;20390;-72
2021/09/01 02:41:33;;;;;;;8.73;5.22;;;;;;;12.11;85.93;98527.34;5029917;28;20034;-72
2021/09/01 02:43:59;;;;;;;6.88;4.82;;;;;;;12.09;85.99;98526.03;5028418;28;20100;-72
2021/09/01 02:46:24;;;;;;;9.20;5.30;;;;;;;12.08;85.79;98529.91;5030517;28;20034;-72
2021/09/01 02:48:50;;;;;;;8.25;5.53;;;;;;;12.07;86.02;98531.81;5011655;28;20022;-72
2021/09/01 02:51:15;;;;;;;8.77;5.13;;;;;;;12.06;85.58;98541.19;5029615;28;20093;-72
2021/09/01 02:53:41;;;;;;;9.57;5.47;;;;;;;12.04;85.88;98537.94;5027362;28;20022;-73
2021/09/01 02:56:06;;;;;;;7.68;5.57;;;;;;;12.03;85.98;98536.31;5029731;28;20122;-72
2021/09/01 02:58:32;;;;;;;8.90;5.55;;;;;;;12.03;85.69;98547.28;5029943;28;20176;-72
2021/09/01 03:00:57;;;;;;;7.18;4.75;;;;;;;12.02;85.79;98541.00;5030277;28;20466;-72
2021/09/01 03:03:23;;;;;;;5.93;4.78;;;;;;;12.01;86.10;98544.06;5028283;28;20482;-72
2021/09/01 03:05:48;;;;;;;9.38;5.30;;;;;;;12.02;85.74;98540.19;5029050;28;20030;-72
2021/09/01 03:08:13;;;;;;;7.53;5.15;;;;;;;12.02;85.57;98553.94;5030455;28;20057;-73
2021/09/01 03:10:39;;;;;;;10.07;6.10;;;;;;;11.99;85.42;98552.59;5031656;28;20116;-72
2021/09/01 03:13:05;;;;;;;8.07;4.97;;;;;;;11.99;85.82;98555.34;5032859;28;20029;-72
2021/09/01 03:15:31;;;;;;;7.85;4.47;;;;;;;11.97;86.17;98568.53;5033465;28;20126;-72
2021/09/01 03:17:56;;;;;;;7.15;4.50;;;;;;;11.95;85.96;98565.28;5032770;28;20455;-73
2021/09/01 03:20:22;;;;;;;8.30;4.88;;;;;;;11.94;86.21;98560.09;5016205;28;20028;-72
2021/09/01 03:22:47;;;;;;;7.43;4.70;;;;;;;11.93;85.92;98563.97;5034099;28;20025;-72
2021/09/01 03:25:13;;;;;;;8.95;5.18;;;;;;;11.89;85.96;98556.31;5030709;28;20493;-72
2021/09/01 03:27:39;;;;;;;8.40;5.53;;;;;;;11.88;86.29;98562.09;5034376;28;20030;-72
2021/09/01 03:30:05;;;;;;;9.82;5.65;;;;;;;11.85;86.24;98552.56;5032515;28;20425;-73
2021/09/01 03:32:30;;;;;;;8.98;5.68;;;;;;;11.85;86.38;98563.53;5030710;28;20133;-73
2021/09/01 03:34:56;;;;;;;9.05;5.72;;;;;;;11.87;86.44;98569.56;5030023;28;20041;-72
2021/09/01 03:37:21;;;;;;;8.05;5.25;;;;;;;11.86;86.57;98567.91;5032122;28;20111;-73
2021/09/01 03:39:47;;;;;;;8.48;6.28;;;;;;;11.86;86.99;98578.09;5033729;28;20041;-72
2021/09/01 03:42:12;;;;;;;7.75;4.95;;;;;;;11.82;86.34;98572.38;5033997;28;20025;-72
2021/09/01 03:44:37;;;;;;;7.20;5.20;;;;;;;11.82;86.62;98579.84;5033016;28;20067;-72
2021/09/01 03:47:03;;;;;;;7.88;4.90;;;;;;;11.82;86.24;98586.13;5033167;28;20091;-73
2021/09/01 03:49:29;;;;;;;7.07;4.78;;;;;;;11.81;86.63;98583.69;5033152;28;20408;-72
2021/09/01 03:51:54;;;;;;;8.55;5.75;;;;;;;11.78;86.73;98587.84;5033646;28;20537;-72
2021/09/01 03:54:20;;;;;;;7.15;4.65;;;;;;;11.80;86.78;98582.06;5032217;28;20029;-73
2021/09/01 03:56:45;;;;;;;8.50;5.63;;;;;;;11.78;86.83;98590.59;5033689;28;20074;-72
2021/09/01 03:59:10;;;;;;;8.48;5.55;;;;;;;11.75;86.45;98583.78;5033127;28;20056;-73
2021/09/01 04:01:36;;;;;;;10.25;6.50;;;;;;;11.77;86.94;98589.78;5030421;28;20026;-72
2021/09/01 04:04:06;;;;;;;9.68;5.50;;;;;;;11.76;87.00;98596.41;5015761;28;20037;-72
2021/09/01 04:06:32;;;;;;;9.05;6.38;;;;;;;11.77;86.76;98602.69;5033355;28;20037;-73
2021/09/01 04:08:57;;;;;;;9.68;5.70;;;;;;;11.76;86.91;98603.81;5033368;28;20039;-73
2021/09/01 04:11:23;;;;;;;8.13;5.32;;;;;;;11.79;87.07;98611.47;5029269;28;20034;-72
2021/09/01 04:13:49;;;;;;;9.98;5.60;;;;;;;11.77;86.88;98617.28;5033718;28;20114;-73
2021/09/01 04:16:14;;;;;;;7.38;5.00;;;;;;;11.76;86.76;98614.81;5032680;28;20506;-73
2021/09/01 04:18:39;;;;;;;8.60;5.05;;;;;;;11.77;86.74;98617.28;5033301;28;20032;-73
2021/09/01 04:21:05;;;;;;;7.65;4.90;;;;;;;11.77;86.73;98619.19;5031211;28;20025;-73
2021/09/01 04:23:30;;;;;;;6.07;4.53;;;;;;;11.75;86.94;98614.00;5026077;28;20025;-72
2021/09/01 04:25:55;;;;;;;5.85;4.43;;;;;;;11.75;86.41;98632.41;5029661;28;20036;-73
2021/09/01 04:28:21;;;;;;;5.72;3.95;;;;;;;11.74;86.26;98631.59;5033058;28;20036;-73
2021/09/01 04:30:47;;;;;;;7.55;5.35;;;;;;;11.73;87.01;98634.63;5031669;28;20348;-72
2021/09/01 04:33:13;;;;;;;7.97;6.05;;;;;;;11.72;86.90;98642.06;5032620;28;20057;-73
2021/09/01 04:35:38;;;;;;;7.43;4.88;;;;;;;11.72;86.84;98644.81;5032844;28;20026;-72
2021/09/01 04:38:04;;;;;;;10.05;8.73;;;;;;;11.71;86.60;98647.84;5032657;28;20132;-72
2021/09/01 04:40:29;;;;;;;16.60;14.77;;;;;;;11.73;87.17;98642.88;5030748;28;20030;-73
2021/09/01 04:42:55;;;;;;;8.18;5.97;;;;;;;11.72;87.07;98650.31;5032733;28;20025;-72
2021/09/01 04:45:21;;;;;;;14.85;13.05;;;;;;;11.71;87.12;98650.59;5032564;28;20056;-72
2021/09/01 04:47:46;;;;;;;11.30;8.77;;;;;;;11.70;86.59;98654.47;5031742;28;20029;-72
2021/09/01 04:50:12;;;;;;;11.48;8.52;;;;;;;11.70;87.07;98652.56;5030585;28;20060;-72
2021/09/01 04:52:38;;;;;;;11.80;9.90;;;;;;;11.71;87.05;98654.19;5032097;28;20393;-73
2021/09/01 04:55:04;;;;;;;12.20;8.50;;;;;;;11.71;87.10;98658.84;5014571;28;20465;-73
2021/09/01 04:57:30;;;;;;;9.02;6.10;;;;;;;11.70;86.68;98668.19;5014172;28;20025;-72
2021/09/01 04:59:55;;;;;;;14.70;11.90;;;;;;;11.72;87.01;98666.81;5031340;28;20028;-72
2021/09/01 05:02:20;;;;;;;9.65;6.50;;;;;;;11.72;86.92;98664.06;5031662;28;20057;-72
2021/09/01 05:04:46;;;;;;;20.42;11.57;;;;;;;11.71;86.78;98661.59;5031606;28;20546;-72
2021/09/01 05:07:11;;;;;;;37.15;13.20;;;;;;;11.72;87.22;98665.97;5013853;28;20415;-72
2021/09/01 05:09:36;;;;;;;15.57;6.90;;;;;;;11.71;87.33;98667.91;5031833;28;20029;-72
2021/09/01 05:12:02;;;;;;;10.13;6.03;;;;;;;11.74;86.59;98664.56;5031290;28;20099;-72
2021/09/01 05:14:27;;;;;;;16.52;7.57;;;;;;;11.71;87.42;98662.44;5032190;28;20068;-72
2021/09/01 05:16:53;;;;;;;14.13;6.88;;;;;;;11.71;86.89;98667.09;5030489;28;20059;-72
2021/09/01 05:19:18;;;;;;;18.48;8.38;;;;;;;11.72;87.01;98671.47;5030384;28;20040;-73
2021/09/01 05:21:54;;;;;;;16.42;7.40;;;;;;;11.73;87.17;98667.59;5011895;28;20033;-72
2021/09/01 05:24:38;;;;;;;13.30;7.00;;;;;;;11.73;87.46;98673.94;5031187;28;20026;-73
2021/09/01 05:27:11;;;;;;;9.40;6.18;;;;;;;11.76;86.93;98673.34;5013376;28;20100;-72
2021/09/01 05:29:42;;;;;;;8.40;5.07;;;;;;;11.76;86.82;98678.00;5030961;28;20025;-71
2021/09/01 05:32:13;;;;;;;18.52;9.98;;;;;;;11.76;87.07;98678.00;5030301;28;20037;-73
2021/09/01 05:34:39;;;;;;;20.83;8.15;;;;;;;11.77;87.04;98677.72;5031031;28;20052;-73
2021/09/01 05:37:05;;;;;;;9.07;5.32;;;;;;;11.77;87.14;98677.72;5030312;28;20033;-73
2021/09/01 05:39:31;;;;;;;12.27;8.30;;;;;;;11.80;87.02;98679.03;5028389;28;20397;-73
2021/09/01 05:41:57;;;;;;;12.38;7.50;;;;;;;11.83;86.92;98683.09;5030114;28;20032;-73
2021/09/01 05:44:23;;;;;;;17.20;7.53;;;;;;;11.85;87.04;98678.97;5031631;28;20025;-73
2021/09/01 05:46:50;;;;;;;7.03;4.60;;;;;;;11.88;86.75;98691.28;5030897;28;20034;-73
2021/09/01 05:49:16;;;;;;;8.15;5.15;;;;;;;11.89;86.47;98691.00;5030257;28;20440;-72
2021/09/01 05:51:42;;;;;;;14.23;8.68;;;;;;;11.91;86.60;98690.69;5027333;28;20048;-72
2021/09/01 05:54:07;;;;;;;17.60;11.80;;;;;;;11.94;86.82;98690.09;5027757;28;20446;-73
2021/09/01 05:56:35;;;;;;;16.55;8.55;;;;;;;11.95;86.46;98699.16;5031406;28;20060;-72
2021/09/01 05:59:07;;;;;;;9.70;5.90;;;;;;;11.97;86.70;98696.94;5029254;28;20022;-72
2021/09/01 06:01:38;;;;;;;9.55;5.38;;;;;;;11.99;86.81;98703.78;5027393;28;20026;-73
2021/09/01 06:04:08;;;;;;;10.35;6.72;;;;;;;12.01;86.33;98701.56;5013705;28;20029;-73
2021/09/01 06:06:37;;;;;;;8.55;5.65;;;;;;;12.03;86.40;98698.50;5031329;28;20030;-73
2021/09/01 06:09:03;;;;;;;9.23;6.37;;;;;;;12.06;86.77;98700.63;5010121;28;20018;-73
2021/09/01 06:11:29;;;;;;;7.50;4.75;;;;;;;12.08;86.05;98706.66;5027231;28;20029;-72
2021/09/01 06:13:55;;;;;;;10.23;5.43;;;;;;;12.08;86.13;98705.84;5027771;28;20021;-72
2021/09/01 06:16:20;;;;;;;7.22;4.47;;;;;;;12.07;86.00;98710.50;5030844;28;20451;-72
2021/09/01 06:18:46;;;;;;;7.25;4.43;;;;;;;12.06;86.29;98717.97;5031236;28;20130;-73
2021/09/01 06:21:11;;;;;;;5.55;3.67;;;;;;;12.07;85.76;98713.25;5030610;28;20036;-72
2021/09/01 06:23:36;;;;;;;7.88;4.47;;;;;;;12.10;86.29;98725.63;5030692;28;20477;-73
2021/09/01 06:26:03;;;;;;;6.28;4.40;;;;;;;12.10;86.03;98729.16;5030896;28;20402;-73
2021/09/01 06:28:28;;;;;;;6.82;4.60;;;;;;;12.08;86.07;98725.09;5030874;28;20434;-73
2021/09/01 06:30:54;;;;;;;6.72;4.95;;;;;;;12.08;86.14;98736.91;5030425;28;20033;-72
2021/09/01 06:33:19;;;;;;;6.35;4.60;;;;;;;12.05;85.91;98732.81;5030958;28;20061;-73
2021/09/01 06:35:44;;;;;;;7.88;5.30;;;;;;;12.05;85.88;98723.75;5013213;28;20049;-72
2021/09/01 06:38:10;;;;;;;7.72;5.25;;;;;;;12.03;85.62;98736.97;5030799;28;20033;-72
2021/09/01 06:40:35;;;;;;;8.63;5.80;;;;;;;12.02;85.50;98738.13;5013003;28;20022;-73
2021/09/01 06:43:00;;;;;;;8.35;5.60;;;;;;;12.01;85.94;98740.03;5027926;28;20063;-74
2021/09/01 06:45:26;;;;;;;9.73;6.53;;;;;;;12.01;85.95;98744.72;5025809;28;20037;-73
2021/09/01 06:47:53;;;;;;;9.60;6.15;;;;;;;12.01;86.03;98751.03;5033403;28;20491;-73
2021/09/01 06:50:26;;;;;;;12.32;6.60;;;;;;;12.03;86.50;98761.72;5032413;28;20394;-73
2021/09/01 06:52:53;;;;;;;10.57;6.57;;;;;;;12.02;86.12;98758.16;5031019;28;20036;-74
2021/09/01 06:55:19;;;;;;;11.82;6.63;;;;;;;12.06;85.72;98766.63;5031729;28;20034;-71
2021/09/01 06:57:45;;;;;;;11.00;7.20;;;;;;;12.07;85.95;98762.75;5032884;28;20417;-71
2021/09/01 07:00:14;;;;;;;12.55;7.05;;;;;;;12.06;86.10;98778.44;5013346;28;20032;-74
2021/09/01 07:02:40;;;;;;;11.20;6.93;;;;;;;12.08;85.82;98775.38;5032064;28;20022;-72
2021/09/01 07:05:06;;;;;;;13.02;7.30;;;;;;;12.08;86.35;98769.88;5031062;28;20417;-72
2021/09/01 07:07:31;;;;;;;12.75;7.35;;;;;;;12.10;85.79;98784.16;5032630;28;20385;-72
2021/09/01 07:09:57;;;;;;;12.43;7.22;;;;;;;12.12;86.05;98784.66;5030781;28;20034;-72
2021/09/01 07:12:27;;;;;;;12.63;7.82;;;;;;;12.13;85.56;98780.00;5014856;28;20021;-72
2021/09/01 07:14:53;;;;;;;11.98;7.22;;;;;;;12.11;85.84;98791.28;5031742;28;20048;-72
2021/09/01 07:17:18;;;;;;;9.77;6.25;;;;;;;12.14;86.32;98796.19;5030574;28;20505;-72
2021/09/01 07:19:43;;;;;;;9.15;6.18;;;;;;;12.15;85.85;98797.03;5032298;28;20037;-72
2021/09/01 07:22:09;;;;;;;15.27;8.10;;;;;;;12.16;85.75;98806.91;5031571;28;20036;-72
2021/09/01 07:24:34;;;;;;;12.15;8.02;;;;;;;12.16;86.28;98807.72;5014198;28;20045;-73
2021/09/01 07:26:59;;;;;;;13.95;8.13;;;;;;;12.18;86.31;98810.19;5028573;28;20033;-72
2021/09/01 07:29:25;;;;;;;14.45;8.25;;;;;;;12.19;86.13;98814.56;5013644;28;20091;-73
2021/09/01 07:31:50;;;;;;;14.95;8.30;;;;;;;12.21;85.93;98815.09;5022485;28;20434;-72
2021/09/01 07:34:15;;;;;;;14.38;7.82;;;;;;;12.24;86.17;98814.47;5013454;28;20032;-72
2021/09/01 07:36:41;;;;;;;11.00;7.32;;;;;;;12.27;85.89;98826.81;5028377;28;20091;-71
2021/09/01 07:39:06;;;;;;;14.32;8.38;;;;;;;12.29;85.71;98821.81;5031432;28;20044;-72
2021/09/01 07:41:33;;;;;;;10.82;6.90;;;;;;;12.32;85.50;98823.97;5027529;28;20065;-71
2021/09/01 07:43:58;;;;;;;13.57;7.57;;;;;;;12.33;85.94;98826.41;5030402;28;20108;-72
2021/09/01 07:46:24;;;;;;;13.63;8.30;;;;;;;12.39;85.86;98835.44;5029320;28;20722;-72
2021/09/01 07:48:49;;;;;;;14.30;8.15;;;;;;;12.42;86.14;98839.50;5028733;28;20030;-72
2021/09/01 07:51:14;;;;;;;57.05;24.40;;;;;;;12.43;85.89;98843.88;5027822;28;20034;-72
2021/09/01 07:53:40;;;;;;;14.30;7.50;;;;;;;12.44;85.41;98838.06;5010654;28;20080;-72
2021/09/01 07:56:05;;;;;;;14.70;7.20;;;;;;;12.43;85.22;98844.69;5031118;28;20037;-70
2021/09/01 07:58:31;;;;;;;14.38;8.55;;;;;;;12.47;85.57;98850.44;5010190;28;20033;-72
2021/09/01 08:00:56;;;;;;;14.55;7.90;;;;;;;12.49;85.28;98854.50;5028971;28;20029;-73
2021/09/01 08:03:21;;;;;;;16.38;8.40;;;;;;;12.53;85.45;98853.91;5029809;28;20034;-73
2021/09/01 08:05:47;;;;;;;15.45;8.10;;;;;;;12.58;85.64;98854.66;5031077;28;20517;-71
2021/09/01 08:08:12;;;;;;;13.70;8.43;;;;;;;12.59;85.39;98859.03;5030915;28;20521;-73
2021/09/01 08:10:37;;;;;;;13.43;8.20;;;;;;;12.63;85.66;98870.25;5030886;28;20025;-72
2021/09/01 08:13:03;;;;;;;12.80;7.95;;;;;;;12.61;84.98;98867.81;5030188;28;20033;-73
2021/09/01 08:15:28;;;;;;;12.93;6.65;;;;;;;12.62;85.17;98871.38;5028462;28;20510;-73
2021/09/01 08:17:54;;;;;;;16.60;7.93;;;;;;;12.65;85.31;98879.84;5012156;28;20049;-72
2021/09/01 08:20:19;;;;;;;9.98;5.85;;;;;;;12.71;85.06;98877.84;5028847;28;20581;-75
2021/09/01 08:22:45;;;;;;;11.88;7.35;;;;;;;12.79;85.02;98879.06;5011831;28;20037;-74
2021/09/01 08:25:10;;;;;;;13.05;7.35;;;;;;;12.82;85.08;98892.25;5030398;28;20477;-74
2021/09/01 08:27:37;;;;;;;23.65;15.30;;;;;;;12.83;84.94;98891.13;5029764;28;20486;-72
2021/09/01 08:30:04;;;;;;;14.88;9.10;;;;;;;12.90;84.87;98894.31;5029515;28;20309;-71
2021/09/01 08:32:29;;;;;;;11.65;8.38;;;;;;;12.99;84.72;98899.13;5029082;28;20061;-73
2021/09/01 08:34:55;;;;;;;14.70;8.23;;;;;;;13.11;84.68;98899.47;5026815;28;20116;-73
2021/09/01 08:37:20;;;;;;;12.88;7.45;;;;;;;13.22;84.65;98900.13;5012493;28;20116;-72
2021/09/01 08:39:46;;;;;;;14.25;9.55;;;;;;;13.41;84.24;98908.34;5010989;28;20049;-74
2021/09/01 08:42:11;;;;;;;11.85;7.57;;;;;;;13.53;84.09;98903.13;5030537;28;20101;-73
2021/09/01 08:44:37;;;;;;;15.13;8.70;;;;;;;13.58;83.36;98912.41;5029888;28;20029;-73
2021/09/01 08:47:03;;;;;;;13.38;8.93;;;;;;;13.64;83.71;98912.03;5030580;28;20031;-73
2021/09/01 08:49:30;;;;;;;11.10;7.68;;;;;;;13.71;83.55;98919.88;5029692;28;20496;-74
2021/09/01 08:51:56;;;;;;;12.77;7.22;;;;;;;13.79;83.48;98912.84;5029687;28;20528;-74
2021/09/01 08:54:23;;;;;;;12.55;7.55;;;;;;;13.88;83.24;98922.03;5029543;28;20163;-75
2021/09/01 08:56:49;;;;;;;11.65;6.47;;;;;;;13.87;82.97;98920.41;5030568;28;20050;-75
2021/09/01 08:59:14;;;;;;;12.93;7.80;;;;;;;13.89;82.56;98928.34;5029946;28;20025;-72
2021/09/01 09:01:41;;;;;;;12.45;7.40;;;;;;;13.87;82.56;98934.19;5028981;28;20025;-74
2021/09/01 09:04:14;;;;;;;13.40;7.40;;;;;;;13.87;82.82;98936.94;5027883;28;20945;-71
2021/09/01 09:07:00;;;;;;;13.13;7.30;;;;;;;13.85;83.11;98936.44;5028994;28;20033;-73
2021/09/01 09:09:33;;;;;;;10.63;6.75;;;;;;;13.83;82.56;98933.16;5028860;28;20490;-73
2021/09/01 09:12:00;;;;;;;11.02;7.03;;;;;;;13.94;82.71;98940.09;5030374;28;20123;-73
2021/09/01 09:14:25;;;;;;;12.38;7.25;;;;;;;14.07;82.69;98937.63;5029456;28;20029;-73
2021/09/01 09:17:15;;;;;;;13.18;7.75;;;;;;;14.10;81.42;98935.09;5030083;28;20747;-74
2021/09/01 09:19:44;;;;;;;12.10;7.03;;;;;;;14.22;82.21;98933.75;5028077;28;20057;-74
2021/09/01 09:22:11;;;;;;;12.43;7.45;;;;;;;14.35;82.02;98937.63;5030386;28;20029;-72
2021/09/01 09:24:37;;;;;;;30.15;18.13;;;;;;;14.50;82.06;98922.66;5027487;28;20025;-72
2021/09/01 09:27:05;;;;;;;24.38;14.52;;;;;;;14.64;81.53;98925.38;5009085;28;20040;-74
2021/09/01 09:29:31;;;;;;;29.83;18.77;;;;;;;14.87;81.26;98926.22;5028828;28;20037;-74
2021/09/01 09:32:05;;;;;;;18.80;11.35;;;;;;;15.05;80.76;98921.66;5026098;28;20064;-73
2021/09/01 09:34:40;;;;;;;15.98;9.32;;;;;;;15.21;80.18;98932.31;5030244;28;20033;-73
2021/09/01 09:37:10;;;;;;;13.80;9.48;;;;;;;15.12;79.53;98927.53;5028822;28;20037;-72
2021/09/01 09:39:41;;;;;;;11.27;8.25;;;;;;;15.17;79.89;98935.72;5029211;28;20033;-74
2021/09/01 09:42:06;;;;;;;10.50;6.32;;;;;;;15.18;79.92;98945.63;5027484;28;20178;-74
2021/09/01 09:44:32;;;;;;;13.07;7.95;;;;;;;15.22;79.06;98939.47;5011877;28;20034;-72
2021/09/01 09:46:57;;;;;;;10.93;7.75;;;;;;;15.38;78.48;98943.44;5027338;28;20068;-73
2021/09/01 09:49:31;;;;;;;10.85;6.97;;;;;;;15.66;78.95;98945.22;5027141;28;20049;-72
2021/09/01 09:51:56;;;;;;;10.32;6.70;;;;;;;15.81;78.74;98947.59;5026406;28;20021;-72
2021/09/01 09:54:25;;;;;;;9.98;6.35;;;;;;;15.90;78.79;98958.69;5029159;28;20043;-76
2021/09/01 09:56:52;;;;;;;10.43;6.65;;;;;;;16.05;78.16;98949.16;5021875;28;20025;-73
2021/09/01 09:59:20;;;;;;;10.10;6.18;;;;;;;16.22;78.81;98946.44;5028827;28;20029;-74
2021/09/01 10:01:47;;;;;;;10.90;6.43;;;;;;;16.39;77.67;98949.56;5024976;28;20421;-75
2021/09/01 10:04:12;;;;;;;12.68;6.80;;;;;;;16.37;76.38;98956.22;5010891;28;20045;-73
2021/09/01 10:06:43;;;;;;;9.75;6.43;;;;;;;16.40;77.50;98957.53;5029729;28;20037;-74
2021/09/01 10:09:09;;;;;;;11.52;6.50;;;;;;;16.48;76.16;98961.47;5029841;28;20034;-74
2021/09/01 10:11:38;;;;;;;11.90;7.38;;;;;;;16.62;77.12;98953.81;5022389;28;20453;-74
2021/09/01 10:14:06;;;;;;;13.77;7.45;;;;;;;16.68;76.16;98968.34;5026666;28;20032;-73
2021/09/01 10:16:34;;;;;;;11.95;7.70;;;;;;;16.63;76.15;98963.75;5027044;28;20124;-72
2021/09/01 10:19:02;;;;;;;10.95;6.93;;;;;;;16.64;75.42;98970.91;5028536;28;20032;-73
2021/09/01 10:21:32;;;;;;;17.33;7.60;;;;;;;16.67;76.11;98969.47;5024738;28;20040;-72
2021/09/01 10:24:18;;;;;;;21.58;16.60;;;;;;;16.64;75.00;98975.66;5026359;28;20040;-70
2021/09/01 10:27:00;;;;;;;9.35;7.13;;;;;;;16.54;73.99;98979.53;5029001;28;20025;-71
2021/09/01 10:29:45;;;;;;;11.38;7.00;;;;;;;16.33;73.83;98985.69;5027838;28;20075;-73
2021/09/01 10:32:20;;;;;;;9.70;5.65;;;;;;;16.37;74.31;98980.31;5027105;28;20778;-72
2021/09/01 10:34:46;;;;;;;11.90;5.80;;;;;;;16.44;74.14;98974.31;5028624;28;20072;-73
2021/09/01 10:37:41;;;;;;;11.90;8.50;;;;;;;16.47;74.15;98984.75;5028416;28;20057;-73
2021/09/01 10:40:10;;;;;;;9.63;5.72;;;;;;;16.36;73.64;98987.00;5014428;28;20045;-73
2021/09/01 10:42:38;;;;;;;15.05;6.38;;;;;;;16.28;73.46;98985.84;5028233;28;21417;-74
2021/09/01 10:45:09;;;;;;;9.50;5.93;;;;;;;16.37;73.88;98989.44;5027833;28;20055;-73
2021/09/01 10:47:50;;;;;;;10.43;6.18;;;;;;;16.29;74.42;98993.00;5008937;28;20018;-74
2021/09/01 10:50:25;;;;;;;8.60;5.65;;;;;;;16.05;74.34;99001.72;5026846;28;20057;-72
2021/09/01 10:52:59;;;;;;;10.57;6.40;;;;;;;15.94;74.79;99006.72;5026125;28;20036;-74
2021/09/01 10:55:26;;;;;;;9.60;6.60;;;;;;;15.92;74.88;98997.91;5027137;28;20099;-75
2021/09/01 10:58:14;;;;;;;9.20;6.30;;;;;;;15.96;75.22;99001.69;5027391;28;20067;-73
2021/09/01 11:00:40;;;;;;;10.15;6.13;;;;;;;15.95;74.90;99005.59;5028253;28;20428;-72
2021/09/01 11:03:05;;;;;;;9.77;6.30;;;;;;;15.88;75.57;99019.88;5011297;28;20064;-71
2021/09/01 11:05:31;;;;;;;9.75;6.72;;;;;;;15.85;75.98;99023.25;5029941;28;20420;-72
2021/09/01 11:07:56;;;;;;;11.60;6.43;;;;;;;15.76;74.85;99027.91;5028960;28;20116;-72
2021/09/01 11:10:22;;;;;;;10.23;6.55;;;;;;;15.81;74.64;99016.72;5029525;28;20021;-73
2021/09/01 11:13:02;;;;;;;10.00;6.60;;;;;;;15.83;74.95;99028.28;5028791;28;20021;-73
2021/09/01 11:15:43;;;;;;;9.88;6.22;;;;;;;15.95;74.04;99019.41;5029439;28;20057;-73
2021/09/01 11:18:08;;;;;;;9.60;6.20;;;;;;;16.19;74.21;99024.56;5029371;28;20033;-74
2021/09/01 11:20:35;;;;;;;11.68;6.68;;;;;;;16.52;74.18;99021.41;5011652;28;20389;-72
2021/09/01 11:23:02;;;;;;;12.43;6.30;;;;;;;16.46;74.02;99010.81;5028736;28;20029;-73
2021/09/01 11:25:30;;;;;;;12.57;6.30;;;;;;;16.46;74.08;99011.59;5029369;28;20033;-72
2021/09/01 11:27:57;;;;;;;12.13;6.57;;;;;;;16.46;74.06;99021.88;5027980;28;20478;-73
2021/09/01 11:30:30;;;;;;;14.85;7.45;;;;;;;16.54;73.05;99012.75;5028680;28;20033;-74